Latest Weather Observations for Cessnock Airport

IDN60801

Issued at 6:32 pm EST Wednesday 28 June 2017 (issued every 30 minutes, with the page automatically refreshed every 10 minutes)

About weather observations | Map of weather stations | Latest weather observations for NSW | Other Formats
Station Details ID: 061260 Name: CESSNOCK AIRPORT AWS Lat: -32.79 Lon: 151.34 Height: 61.0 m
Data from the previous 72 hours. | See also: Recent months at Cessnock Airport
Date/Time
EST
Temp
°C
App
Temp
°C
Dew
Point
°C
Rel
Hum
%
Delta-T
°C
Wind Press
QNH
hPa
Press
MSL
hPa
Rain since
9am
mm
Dir  Spd
km/h
Gust
km/h
Spd
kts
Gust
kts
28/06:30pm 12.2 10.9 11.4 95 0.4 NNW 9 15 5 8 1021.6 1021.7 2.6
28/06:00pm 12.1 10.4 11.3 95 0.4 NNW 11 17 6 9 1021.2 1021.3 2.6
28/05:30pm 12.2 10.6 11.6 96 0.3 NNW 11 15 6 8 1021.0 1021.1 2.6
28/05:00pm 12.2 11.4 11.6 96 0.3 N 7 9 4 5 1021.2 1021.3 2.6
28/04:30pm 12.4 11.8 11.8 96 0.3 NNW 6 7 3 4 1021.2 1021.3 2.6
28/04:00pm 12.5 12.0 11.9 96 0.3 NW 6 7 3 4 1021.4 1021.5 2.6
28/03:30pm 12.4 11.2 11.6 95 0.4 NNE 9 13 5 7 1021.1 1021.2 2.6
28/03:00pm 12.5 11.3 11.7 95 0.4 N 9 11 5 6 1021.5 1021.6 2.4
28/02:30pm 12.5 11.7 11.6 94 0.5 N 7 9 4 5 1021.4 1021.5 1.8
28/02:00pm 12.5 11.9 11.6 94 0.5 NNW 6 7 3 4 1021.5 1021.6 1.4
28/01:30pm 12.6 11.7 11.5 93 0.6 N 7 11 4 6 1021.4 1021.5 1.2
28/01:00pm 12.7 11.4 11.4 92 0.7 N 9 11 5 6 1021.3 1021.4 1.0
28/12:30pm 12.7 11.4 11.3 91 0.7 NNW 9 13 5 7 1021.7 1021.8 1.0
28/12:00pm 13.3 11.5 10.7 84 1.4 NNW 11 17 6 9 1022.0 1022.1 0.0
28/11:30am 13.6 11.7 10.6 82 1.6 NNW 11 19 6 10 1022.1 1022.2 0.0
28/11:00am 14.0 12.5 10.4 79 1.9 NNW 9 13 5 7 1022.3 1022.4 0.0
28/10:30am 13.9 12.8 10.7 81 1.7 NW 7 9 4 5 1022.8 1022.8 0.0
28/10:00am 12.5 12.3 10.6 88 1.0 ENE 2 7 1 4 1023.0 1023.0 0.0
28/09:30am 11.2 11.2 9.8 91 0.7 CALM 0 0 0 0 1023.3 1023.3 0.0
28/09:00am 10.5 10.4 9.4 93 0.5 CALM 0 0 0 0 1022.9 1022.9 0.0
28/08:30am 10.0 9.9 9.4 96 0.3 CALM 0 0 0 0 1022.8 1022.8 0.0
28/08:00am 9.1 8.8 8.5 96 0.3 CALM 0 6 0 3 1023.3 1023.3 0.0
28/07:30am 9.0 8.3 8.4 96 0.3 ESE 2 7 1 4 1022.9 1022.9 0.0
28/07:00am 8.6 8.1 8.0 96 0.3 CALM 0 0 0 0 1023.1 1023.1 0.0
28/06:30am 8.9 8.5 8.1 95 0.4 CALM 0 0 0 0 1022.9 1022.9 0.0
28/06:00am 9.6 9.3 8.5 93 0.5 CALM 0 0 0 0 1022.8 1022.8 0.0
28/05:30am 9.8 9.5 8.7 93 0.5 CALM 0 4 0 2 1022.7 1022.7 0.0
28/05:00am 10.0 9.7 8.8 92 0.6 CALM 0 0 0 0 1022.7 1022.7 0.0
28/04:30am 9.8 8.4 8.7 93 0.5 ENE 6 7 3 4 1022.4 1022.5 0.0
28/04:00am 10.1 8.2 8.9 92 0.6 N 9 13 5 7 1022.6 1022.6 0.0
28/03:30am 9.6 9.3 8.8 95 0.4 CALM 0 0 0 0 1022.4 1022.5 0.0
28/03:00am 9.6 8.6 8.8 95 0.4 ENE 4 7 2 4 1022.7 1022.7 0.0
28/02:30am 9.4 8.3 8.6 95 0.4 NNW 4 7 2 4 1023.0 1023.0 0.0
28/02:00am 9.2 8.8 8.4 95 0.4 CALM 0 0 0 0 1023.3 1023.3 0.0
28/01:30am 9.3 9.0 8.5 95 0.4 CALM 0 0 0 0 1023.3 1023.3 0.0
28/01:00am 9.2 8.8 8.4 95 0.4 CALM 0 0 0 0 1023.0 1023.0 0.0
28/12:30am 8.9 8.5 8.3 96 0.3 CALM 0 0 0 0 1023.1 1023.1 0.0
28/12:00am 8.6 8.1 8.0 96 0.3 CALM 0 0 0 0 1023.5 1023.5 0.0
 
Date/Time
EST
Temp
°C
App
Temp
°C
Dew
Point
°C
Rel
Hum
%
Delta-T
°C
Wind Press
QNH
hPa
Press
MSL
hPa
Rain since
9am
mm
Dir  Spd
km/h
Gust
km/h
Spd
kts
Gust
kts
27/11:30pm 8.3 7.8 7.9 97 0.2 CALM 0 0 0 0 1023.8 1023.8 0.0
27/11:00pm 7.5 6.8 7.1 97 0.2 CALM 0 7 0 4 1024.0 1024.0 0.0
27/10:30pm 6.9 4.7 6.3 96 0.3 SSE 7 9 4 5 1023.9 1023.9 0.0
27/10:00pm 7.4 5.0 7.0 97 0.2 SW 9 13 5 7 1023.9 1023.9 0.0
27/09:30pm 6.7 4.6 6.0 95 0.3 SSW 6 7 3 4 1023.7 1023.7 0.0
27/09:00pm 7.8 5.8 7.1 95 0.3 SSW 7 11 4 6 1024.0 1024.0 0.0
27/08:30pm 8.4 7.0 7.2 92 0.6 SW 4 7 2 4 1024.3 1024.3 0.0
27/08:00pm 8.8 7.8 7.4 91 0.7 SW 2 7 1 4 1024.2 1024.2 0.0
27/07:30pm 9.8 8.0 7.9 88 0.9 SW 7 9 4 5 1024.1 1024.1 0.0
27/07:00pm 9.9 8.1 8.0 88 0.9 SW 7 11 4 6 1023.9 1023.9 0.0
27/06:30pm 9.7 7.4 7.5 86 1.1 WSW 9 11 5 6 1023.8 1023.8 0.0
27/06:00pm 11.0 8.9 8.2 83 1.4 WSW 9 13 5 7 1023.5 1023.5 0.0
27/05:30pm 11.4 9.9 9.0 85 1.2 WSW 7 11 4 6 1023.4 1023.4 0.0
27/05:00pm 12.3 11.5 9.5 83 1.4 S 4 7 2 4 1023.3 1023.3 0.0
27/04:30pm 13.0 13.0 9.8 81 1.6 CALM 0 0 0 0 1023.3 1023.3 0.0
27/04:00pm 14.6 13.7 9.2 70 2.8 ENE 4 7 2 4 1023.4 1023.4 0.0
27/03:30pm 15.4 15.0 8.2 62 3.6 CALM 0 0 0 0 1023.4 1023.4 0.0
27/03:00pm 15.7 15.1 7.5 58 4.1 CALM 0 0 0 0 1023.7 1023.7 0.0
27/02:30pm 16.1 15.6 7.8 58 4.2 CALM 0 0 0 0 1023.6 1023.6 0.0
27/02:00pm 16.1 15.5 7.3 56 4.4 CALM 0 0 0 0 1024.1 1024.1 0.0
27/01:30pm 16.4 15.1 7.6 56 4.4 WNW 4 7 2 4 1024.3 1024.3 0.0
27/01:00pm 15.9 15.2 6.9 55 4.4 CALM 0 4 0 2 1024.4 1024.4 0.0
27/12:30pm 15.9 14.0 6.6 54 4.6 ENE 6 7 3 4 1024.7 1024.7 0.0
27/12:00pm 15.6 13.9 7.4 58 4.1 NNE 6 9 3 5 1025.3 1025.3 0.0
27/11:30am 14.3 13.1 8.0 66 3.1 NE 4 7 2 4 1025.6 1025.6 0.0
27/11:00am 13.8 12.0 7.8 67 3.0 NNE 7 9 4 5 1026.4 1026.4 0.0
27/10:30am 12.7 10.9 8.0 73 2.3 NNE 7 11 4 6 1026.5 1026.5 0.0
27/10:00am 10.9 9.2 7.4 79 1.7 NE 6 9 3 5 1026.4 1026.4 0.0
27/09:30am 9.1 7.1 6.9 86 1.0 NNE 7 9 4 5 1026.8 1026.8 0.0
27/09:00am 7.0 4.7 5.8 92 0.5 NNE 7 11 4 6 1026.5 1026.5 0.0
27/08:30am 4.5 2.5 4.2 98 0.1 NE 4 6 2 3 1026.4 1026.4 0.0
27/08:00am 1.8 0.0 1.5 98 0.1 CALM 0 0 0 0 1026.0 1026.0 0.0
27/07:30am 0.1 -1.9 -0.2 98 0.1 CALM 0 0 0 0 1025.8 1025.8 0.0
27/07:00am -0.4 -2.5 -0.8 97 0.1 CALM 0 4 0 2 1025.7 1025.7 0.0
27/06:30am 0.0 -2.0 -0.4 97 0.1 CALM 0 0 0 0 1025.6 1025.6 0.0
27/06:00am 0.7 -1.2 0.4 98 0.1 CALM 0 0 0 0 1025.3 1025.3 0.0
27/05:30am -0.3 -2.4 -0.7 97 0.1 CALM 0 0 0 0 1025.2 1025.2 0.0
27/05:00am 0.6 -1.4 0.2 97 0.1 CALM 0 0 0 0 1024.9 1024.9 0.0
27/04:30am 0.3 -1.7 -0.1 97 0.1 CALM 0 0 0 0 1024.9 1024.9 0.0
27/04:00am 0.7 -1.2 0.3 97 0.1 CALM 0 0 0 0 1025.0 1025.0 0.0
27/03:30am 0.6 -1.4 0.2 97 0.1 CALM 0 0 0 0 1025.0 1025.0 0.0
27/03:00am 1.3 -1.3 0.9 97 0.1 NW 4 6 2 3 1025.0 1025.0 0.0
27/02:30am 0.8 -1.1 0.4 97 0.1 CALM 0 0 0 0 1024.9 1024.9 0.0
27/02:00am 1.2 -0.7 0.8 97 0.1 CALM 0 2 0 1 1024.7 1024.7 0.0
27/01:30am 1.8 0.0 1.5 98 0.1 CALM 0 0 0 0 1024.4 1024.4 0.0
27/01:00am 1.8 0.0 1.4 97 0.2 CALM 0 0 0 0 1024.4 1024.4 0.0
27/12:30am 1.5 -0.3 1.1 97 0.2 CALM 0 2 0 1 1024.6 1024.6 0.0
27/12:00am 1.6 -1.4 1.0 96 0.2 SW 6 9 3 5 1024.7 1024.7 0.0
 
Date/Time
EST
Temp
°C
App
Temp
°C
Dew
Point
°C
Rel
Hum
%
Delta-T
°C
Wind Press
QNH
hPa
Press
MSL
hPa
Rain since
9am
mm
Dir  Spd
km/h
Gust
km/h
Spd
kts
Gust
kts
26/11:30pm 2.1 -0.8 1.5 96 0.2 WSW 6 6 3 3 1024.8 1024.8 0.0
26/11:00pm 3.2 1.6 2.6 96 0.2 CALM 0 0 0 0 1025.0 1025.0 0.0
26/10:30pm 2.8 0.8 2.2 96 0.2 W 2 6 1 3 1024.8 1024.8 0.0
26/10:00pm 3.2 0.5 2.5 95 0.3 WSW 6 6 3 3 1024.6 1024.6 0.0
26/09:30pm 3.5 1.9 2.6 94 0.4 CALM 0 6 0 3 1024.6 1024.6 0.0
26/09:00pm 4.0 1.4 3.3 95 0.3 SW 6 7 3 4 1024.3 1024.3 0.0
26/08:30pm 3.5 0.7 2.3 92 0.5 WSW 6 7 3 4 1024.0 1024.0 0.0
26/08:00pm 5.4 4.2 4.5 94 0.4 CALM 0 0 0 0 1023.9 1023.9 0.0
26/07:30pm 5.5 4.1 3.8 89 0.7 CALM 0 7 0 4 1023.6 1023.6 0.0
26/07:00pm 6.9 3.2 4.2 83 1.2 WSW 13 15 7 8 1023.2 1023.2 0.0
26/06:30pm 7.1 4.1 4.2 82 1.3 WSW 9 11 5 6 1022.9 1022.9 0.0
26/06:00pm 8.5 5.7 5.3 80 1.4 WSW 9 11 5 6 1022.4 1022.5 0.0
26/05:30pm 11.0 8.4 6.0 71 2.3 SW 9 11 5 6 1021.8 1021.9 0.0
26/05:00pm 12.3 9.9 4.5 59 3.5 SE 6 9 3 5 1021.4 1021.5 0.0
26/04:30pm 15.3 12.4 4.7 49 5.0 SSE 9 9 5 5 1021.2 1021.3 0.0
26/04:00pm 16.9 13.9 3.9 42 6.1 SSE 9 13 5 7 1021.0 1021.1 0.0
26/03:30pm 17.3 14.8 4.9 44 5.9 S 7 11 4 6 1020.9 1021.0 0.0
26/03:00pm 17.7 14.9 5.3 44 6.0 SSW 9 13 5 7 1020.6 1020.7 0.0
26/02:30pm 17.7 15.3 4.3 41 6.4 SW 6 11 3 6 1020.6 1020.7 0.0
26/02:00pm 18.0 15.5 3.9 39 6.6 SSE 6 9 3 5 1020.7 1020.8 0.0
26/01:30pm 17.9 15.8 4.1 40 6.5 SSW 4 7 2 4 1020.7 1020.8 0.0
26/01:00pm 17.0 13.7 4.7 44 5.8 SE 11 15 6 8 1020.9 1021.0 0.0
26/12:30pm 17.5 15.3 5.1 44 6.0 E 6 9 3 5 1021.2 1021.3 0.0
26/12:00pm 17.0 14.8 5.3 46 5.6 WSW 6 13 3 7 1021.4 1021.5 0.0
26/11:30am 16.5 14.0 6.6 52 4.9 NW 9 15 5 8 1021.5 1021.6 0.0
26/11:00am 16.1 14.1 7.1 55 4.4 NNW 7 13 4 7 1021.9 1022.0 0.0
26/10:30am 14.8 12.7 8.3 65 3.3 NNW 9 13 5 7 1022.3 1022.4 0.0
26/10:00am 12.8 10.2 7.7 71 2.5 NNW 11 17 6 9 1022.3 1022.4 0.0
26/09:30am 11.4 8.8 7.9 79 1.7 N 11 13 6 7 1022.3 1022.4 0.0
26/09:00am 8.2 6.1 6.5 89 0.8 NE 7 9 4 5 1022.2 1022.3 0.0
26/08:30am 6.5 4.3 6.1 97 0.2 NNE 7 11 4 6 1021.9 1022.0 0.0
26/08:00am 3.6 1.4 3.3 98 0.1 NE 4 7 2 4 1021.6 1021.7 0.0
26/07:30am 2.1 0.4 1.8 98 0.1 CALM 0 0 0 0 1021.0 1021.1 0.0
26/07:00am 0.3 -1.7 -0.1 97 0.1 CALM 0 0 0 0 1020.7 1020.8 0.0
26/06:30am 1.1 -0.8 0.7 97 0.1 CALM 0 7 0 4 1020.4 1020.5 0.0
26/06:00am 1.7 -0.4 1.4 98 0.1 WSW 2 7 1 4 1019.9 1020.0 0.0
26/05:30am 1.6 -0.2 1.3 98 0.1 CALM 0 0 0 0 1019.5 1019.6 0.0
26/05:00am 1.3 -0.9 0.9 97 0.1 S 2 6 1 3 1019.1 1019.2 0.0
26/04:30am 2.2 -0.6 1.9 98 0.1 W 6 13 3 7 1019.0 1019.1 0.0
26/04:00am 1.9 0.1 1.5 97 0.2 CALM 0 0 0 0 1018.9 1019.0 0.0
26/03:30am 2.5 0.8 2.1 97 0.2 CALM 0 0 0 0 1018.7 1018.8 0.0
26/03:00am 2.5 0.1 2.1 97 0.2 N 4 6 2 3 1018.8 1018.9 0.0
26/02:30am 3.0 1.4 2.6 97 0.2 CALM 0 0 0 0 1018.5 1018.6 0.0
26/02:00am 2.6 0.9 2.0 96 0.2 CALM 0 2 0 1 1018.3 1018.4 0.0
26/01:30am 3.7 2.3 3.3 97 0.2 CALM 0 0 0 0 1018.2 1018.3 0.0
26/01:00am 4.0 2.6 3.6 97 0.2 CALM 0 0 0 0 1018.2 1018.3 0.0
26/12:30am 3.8 2.3 3.2 96 0.2 CALM 0 0 0 0 1018.2 1018.3 0.0
26/12:00am 4.7 3.4 4.1 96 0.3 CALM 0 0 0 0 1018.4 1018.5 0.0
 
Date/Time
EST
Temp
°C
App
Temp
°C
Dew
Point
°C
Rel
Hum
%
Delta-T
°C
Wind Press
QNH
hPa
Press
MSL
hPa
Rain since
9am
mm
Dir  Spd
km/h
Gust
km/h
Spd
kts
Gust
kts
25/11:30pm 5.1 3.9 4.5 96 0.3 CALM 0 7 0 4 1018.7 1018.8 0.0
25/11:00pm 5.4 3.8 4.5 94 0.4 E 2 6 1 3 1018.7 1018.8 0.0
25/10:30pm 6.3 4.1 5.4 94 0.4 WSW 6 9 3 5 1018.7 1018.8 0.0
25/10:00pm 5.8 4.3 5.1 95 0.3 ESE 2 6 1 3 1018.5 1018.6 0.0
25/09:30pm 5.2 2.5 3.7 90 0.6 WSW 7 9 4 5 1018.2 1018.3 0.0
25/09:00pm 6.7 5.3 5.5 92 0.5 W 2 6 1 3 1018.1 1018.2 0.0
25/08:30pm 6.9 5.5 5.4 90 0.7 ESE 2 7 1 4 1018.0 1018.1 0.0
25/08:00pm 8.1 6.5 6.4 89 0.8 WSW 4 11 2 6 1017.9 1018.0 0.0
25/07:30pm 8.5 7.1 5.6 82 1.3 SW 2 6 1 3 1017.9 1018.0 0.0
25/07:00pm 9.5 7.6 6.8 83 1.3 WSW 6 7 3 4 1017.3 1017.4 0.0

Other Formats:

Comma delimited format used in spreadsheet applications
http://www.bom.gov.au/fwo/IDN60801/IDN60801.95771.axf

JavaScript Object Notation format (JSON) in row-major order
http://www.bom.gov.au/fwo/IDN60801/IDN60801.95771.json